sensor_id;sensor_type;location;lat;lon;timestamp;P1;durP1;ratioP1;P2;durP2;ratioP2
22754;SDS011;11544;42.020;23.094;2023-07-02T00:20:26;14.55;;;8.07;;
22754;SDS011;11544;42.020;23.094;2023-07-02T00:22:54;16.35;;;8.27;;
22754;SDS011;11544;42.020;23.094;2023-07-02T00:25:25;14.30;;;8.05;;
22754;SDS011;11544;42.020;23.094;2023-07-02T00:27:53;16.70;;;8.50;;
22754;SDS011;11544;42.020;23.094;2023-07-02T00:30:20;20.17;;;8.75;;
22754;SDS011;11544;42.020;23.094;2023-07-02T00:32:48;16.63;;;7.93;;
22754;SDS011;11544;42.020;23.094;2023-07-02T00:35:15;20.38;;;8.48;;
22754;SDS011;11544;42.020;23.094;2023-07-02T00:37:42;18.73;;;9.30;;
22754;SDS011;11544;42.020;23.094;2023-07-02T00:40:09;15.18;;;9.50;;
22754;SDS011;11544;42.020;23.094;2023-07-02T00:42:37;16.67;;;9.85;;
22754;SDS011;11544;42.020;23.094;2023-07-02T00:45:04;19.08;;;9.75;;
22754;SDS011;11544;42.020;23.094;2023-07-02T00:47:35;18.70;;;10.45;;
22754;SDS011;11544;42.020;23.094;2023-07-02T00:50:03;14.35;;;8.80;;
22754;SDS011;11544;42.020;23.094;2023-07-02T00:52:31;14.20;;;9.57;;
22754;SDS011;11544;42.020;23.094;2023-07-02T00:54:58;17.13;;;9.48;;
22754;SDS011;11544;42.020;23.094;2023-07-02T00:57:26;14.65;;;9.00;;
22754;SDS011;11544;42.020;23.094;2023-07-02T00:59:57;18.38;;;10.32;;
22754;SDS011;11544;42.020;23.094;2023-07-02T01:02:27;15.23;;;9.20;;
22754;SDS011;11544;42.020;23.094;2023-07-02T01:08:32;18.70;;;9.77;;
22754;SDS011;11544;42.020;23.094;2023-07-02T01:11:21;14.52;;;9.48;;
22754;SDS011;11544;42.020;23.094;2023-07-02T01:14:14;23.13;;;10.82;;
22754;SDS011;11544;42.020;23.094;2023-07-02T01:16:45;15.65;;;9.20;;
22754;SDS011;11544;42.020;23.094;2023-07-02T01:23:25;21.55;;;10.57;;
22754;SDS011;11544;42.020;23.094;2023-07-02T01:26:08;17.25;;;10.68;;
22754;SDS011;11544;42.020;23.094;2023-07-02T01:29:01;21.13;;;12.20;;
22754;SDS011;11544;42.020;23.094;2023-07-02T01:32:16;17.17;;;10.23;;
22754;SDS011;11544;42.020;23.094;2023-07-02T02:02:52;19.75;;;10.30;;
22754;SDS011;11544;42.020;23.094;2023-07-02T02:05:25;16.48;;;10.43;;
22754;SDS011;11544;42.020;23.094;2023-07-02T02:07:53;19.05;;;11.32;;
22754;SDS011;11544;42.020;23.094;2023-07-02T02:10:20;18.65;;;10.55;;
22754;SDS011;11544;42.020;23.094;2023-07-02T02:12:48;13.85;;;9.55;;
22754;SDS011;11544;42.020;23.094;2023-07-02T02:15:18;17.55;;;10.25;;
22754;SDS011;11544;42.020;23.094;2023-07-02T02:18:42;21.13;;;10.30;;
22754;SDS011;11544;42.020;23.094;2023-07-02T02:37:37;17.45;;;10.25;;
22754;SDS011;11544;42.020;23.094;2023-07-02T03:24:28;15.15;;;9.15;;
22754;SDS011;11544;42.020;23.094;2023-07-02T04:50:42;12.57;;;7.97;;
22754;SDS011;11544;42.020;23.094;2023-07-02T04:53:10;13.15;;;8.35;;
22754;SDS011;11544;42.020;23.094;2023-07-02T04:59:03;10.15;;;7.30;;
22754;SDS011;11544;42.020;23.094;2023-07-02T05:01:36;12.10;;;8.52;;
22754;SDS011;11544;42.020;23.094;2023-07-02T05:04:09;12.15;;;8.18;;
22754;SDS011;11544;42.020;23.094;2023-07-02T05:06:38;14.48;;;9.48;;
22754;SDS011;11544;42.020;23.094;2023-07-02T05:09:05;14.93;;;8.75;;
22754;SDS011;11544;42.020;23.094;2023-07-02T05:11:32;12.98;;;9.25;;
22754;SDS011;11544;42.020;23.094;2023-07-02T05:13:59;11.50;;;8.52;;
22754;SDS011;11544;42.020;23.094;2023-07-02T05:16:32;10.20;;;8.00;;
22754;SDS011;11544;42.020;23.094;2023-07-02T05:18:59;13.07;;;8.27;;
22754;SDS011;11544;42.020;23.094;2023-07-02T05:21:26;11.77;;;8.43;;
22754;SDS011;11544;42.020;23.094;2023-07-02T05:23:53;13.98;;;8.77;;
22754;SDS011;11544;42.020;23.094;2023-07-02T05:26:20;12.75;;;8.32;;
22754;SDS011;11544;42.020;23.094;2023-07-02T05:28:50;13.40;;;8.65;;
22754;SDS011;11544;42.020;23.094;2023-07-02T05:31:19;11.63;;;8.43;;
22754;SDS011;11544;42.020;23.094;2023-07-02T05:33:57;11.40;;;7.85;;
22754;SDS011;11544;42.020;23.094;2023-07-02T05:36:25;12.32;;;7.55;;
22754;SDS011;11544;42.020;23.094;2023-07-02T05:38:53;12.07;;;8.45;;
22754;SDS011;11544;42.020;23.094;2023-07-02T05:41:20;11.40;;;7.82;;
22754;SDS011;11544;42.020;23.094;2023-07-02T05:43:48;10.13;;;8.50;;
22754;SDS011;11544;42.020;23.094;2023-07-02T05:46:15;12.40;;;8.18;;
22754;SDS011;11544;42.020;23.094;2023-07-02T05:48:42;12.48;;;8.10;;
22754;SDS011;11544;42.020;23.094;2023-07-02T05:51:09;10.57;;;8.27;;
22754;SDS011;11544;42.020;23.094;2023-07-02T05:53:37;9.82;;;7.97;;
22754;SDS011;11544;42.020;23.094;2023-07-02T05:56:04;11.15;;;7.95;;
22754;SDS011;11544;42.020;23.094;2023-07-02T05:58:31;13.55;;;9.05;;
22754;SDS011;11544;42.020;23.094;2023-07-02T06:01:13;10.43;;;7.72;;
22754;SDS011;11544;42.020;23.094;2023-07-02T06:03:41;10.85;;;8.35;;
22754;SDS011;11544;42.020;23.094;2023-07-02T06:06:09;14.20;;;9.32;;
22754;SDS011;11544;42.020;23.094;2023-07-02T06:08:37;11.15;;;7.40;;
22754;SDS011;11544;42.020;23.094;2023-07-02T06:11:05;11.15;;;7.13;;
22754;SDS011;11544;42.020;23.094;2023-07-02T06:13:31;9.98;;;6.85;;
22754;SDS011;11544;42.020;23.094;2023-07-02T06:15:58;14.93;;;7.55;;
22754;SDS011;11544;42.020;23.094;2023-07-02T06:18:25;11.02;;;6.75;;
22754;SDS011;11544;42.020;23.094;2023-07-02T06:20:53;11.02;;;7.13;;
22754;SDS011;11544;42.020;23.094;2023-07-02T06:23:20;10.48;;;5.80;;
22754;SDS011;11544;42.020;23.094;2023-07-02T06:25:47;9.50;;;6.72;;
22754;SDS011;11544;42.020;23.094;2023-07-02T06:28:13;8.70;;;5.78;;
22754;SDS011;11544;42.020;23.094;2023-07-02T06:30:40;8.75;;;6.32;;
22754;SDS011;11544;42.020;23.094;2023-07-02T06:33:07;8.55;;;7.10;;
22754;SDS011;11544;42.020;23.094;2023-07-02T06:35:34;11.45;;;6.93;;
22754;SDS011;11544;42.020;23.094;2023-07-02T06:38:02;10.10;;;6.63;;
22754;SDS011;11544;42.020;23.094;2023-07-02T06:40:31;10.57;;;7.10;;
22754;SDS011;11544;42.020;23.094;2023-07-02T06:43:04;7.20;;;6.28;;
22754;SDS011;11544;42.020;23.094;2023-07-02T06:45:32;10.68;;;7.13;;
22754;SDS011;11544;42.020;23.094;2023-07-02T06:48:08;10.00;;;7.22;;
22754;SDS011;11544;42.020;23.094;2023-07-02T09:29:36;4.30;;;3.45;;
22754;SDS011;11544;42.020;23.094;2023-07-02T09:32:54;7.13;;;3.33;;
22754;SDS011;11544;42.020;23.094;2023-07-02T09:35:44;6.57;;;3.38;;
22754;SDS011;11544;42.020;23.094;2023-07-02T09:38:32;6.70;;;3.28;;
22754;SDS011;11544;42.020;23.094;2023-07-02T09:41:14;4.03;;;3.38;;
22754;SDS011;11544;42.020;23.094;2023-07-02T09:47:50;4.38;;;3.65;;
22754;SDS011;11544;42.020;23.094;2023-07-02T09:50:26;4.63;;;3.40;;
22754;SDS011;11544;42.020;23.094;2023-07-02T09:53:00;4.13;;;3.38;;
22754;SDS011;11544;42.020;23.094;2023-07-02T09:55:27;3.38;;;2.85;;
22754;SDS011;11544;42.020;23.094;2023-07-02T09:57:55;5.10;;;3.38;;
22754;SDS011;11544;42.020;23.094;2023-07-02T10:00:24;4.53;;;3.22;;
22754;SDS011;11544;42.020;23.094;2023-07-02T10:02:54;6.13;;;3.15;;
22754;SDS011;11544;42.020;23.094;2023-07-02T10:05:33;8.98;;;3.97;;
22754;SDS011;11544;42.020;23.094;2023-07-02T10:08:12;5.68;;;3.75;;
22754;SDS011;11544;42.020;23.094;2023-07-02T10:10:43;7.07;;;3.67;;
22754;SDS011;11544;42.020;23.094;2023-07-02T10:13:26;5.45;;;3.50;;
22754;SDS011;11544;42.020;23.094;2023-07-02T10:16:06;5.03;;;3.45;;
22754;SDS011;11544;42.020;23.094;2023-07-02T10:18:36;4.03;;;3.08;;
22754;SDS011;11544;42.020;23.094;2023-07-02T10:21:16;4.07;;;3.15;;
22754;SDS011;11544;42.020;23.094;2023-07-02T10:23:44;4.95;;;3.42;;
22754;SDS011;11544;42.020;23.094;2023-07-02T10:26:22;4.47;;;3.15;;
22754;SDS011;11544;42.020;23.094;2023-07-02T10:29:00;7.85;;;3.33;;
22754;SDS011;11544;42.020;23.094;2023-07-02T10:31:49;6.53;;;4.07;;
22754;SDS011;11544;42.020;23.094;2023-07-02T10:34:33;3.30;;;3.00;;
22754;SDS011;11544;42.020;23.094;2023-07-02T10:37:02;3.50;;;2.97;;
22754;SDS011;11544;42.020;23.094;2023-07-02T10:39:42;4.90;;;3.70;;
22754;SDS011;11544;42.020;23.094;2023-07-02T10:42:16;5.28;;;3.13;;
22754;SDS011;11544;42.020;23.094;2023-07-02T10:44:50;6.25;;;3.72;;
22754;SDS011;11544;42.020;23.094;2023-07-02T10:47:26;5.47;;;3.08;;
22754;SDS011;11544;42.020;23.094;2023-07-02T10:50:13;5.28;;;4.13;;
22754;SDS011;11544;42.020;23.094;2023-07-02T14:18:13;10.95;;;8.77;;
22754;SDS011;11544;42.020;23.094;2023-07-02T14:21:16;10.75;;;8.85;;
22754;SDS011;11544;42.020;23.094;2023-07-02T14:24:19;10.27;;;8.27;;
22754;SDS011;11544;42.020;23.094;2023-07-02T14:27:05;10.70;;;7.90;;
22754;SDS011;11544;42.020;23.094;2023-07-02T14:29:41;9.88;;;8.35;;
22754;SDS011;11544;42.020;23.094;2023-07-02T14:32:37;8.63;;;7.40;;
22754;SDS011;11544;42.020;23.094;2023-07-02T14:35:07;11.55;;;8.95;;
22754;SDS011;11544;42.020;23.094;2023-07-02T14:38:20;11.77;;;8.32;;
22754;SDS011;11544;42.020;23.094;2023-07-02T14:41:05;10.35;;;8.50;;
22754;SDS011;11544;42.020;23.094;2023-07-02T14:43:37;10.65;;;8.35;;
22754;SDS011;11544;42.020;23.094;2023-07-02T14:46:44;11.05;;;8.00;;
22754;SDS011;11544;42.020;23.094;2023-07-02T14:49:41;10.40;;;8.35;;
22754;SDS011;11544;42.020;23.094;2023-07-02T14:52:08;10.48;;;9.38;;
22754;SDS011;11544;42.020;23.094;2023-07-02T14:54:50;11.23;;;8.48;;
22754;SDS011;11544;42.020;23.094;2023-07-02T14:57:31;14.13;;;8.23;;
22754;SDS011;11544;42.020;23.094;2023-07-02T14:59:59;12.10;;;8.65;;
22754;SDS011;11544;42.020;23.094;2023-07-02T15:02:38;9.80;;;7.72;;
22754;SDS011;11544;42.020;23.094;2023-07-02T15:05:13;9.85;;;8.32;;
22754;SDS011;11544;42.020;23.094;2023-07-02T15:07:47;10.45;;;8.32;;
22754;SDS011;11544;42.020;23.094;2023-07-02T15:10:29;11.77;;;8.20;;
22754;SDS011;11544;42.020;23.094;2023-07-02T15:13:12;12.15;;;8.35;;
22754;SDS011;11544;42.020;23.094;2023-07-02T15:16:01;10.65;;;8.52;;
22754;SDS011;11544;42.020;23.094;2023-07-02T15:18:31;11.25;;;7.80;;
22754;SDS011;11544;42.020;23.094;2023-07-02T15:21:06;10.07;;;8.38;;
22754;SDS011;11544;42.020;23.094;2023-07-02T15:23:42;9.27;;;8.35;;
22754;SDS011;11544;42.020;23.094;2023-07-02T15:26:28;9.20;;;7.80;;
22754;SDS011;11544;42.020;23.094;2023-07-02T15:29:12;10.18;;;8.73;;
22754;SDS011;11544;42.020;23.094;2023-07-02T16:15:46;12.25;;;9.18;;
22754;SDS011;11544;42.020;23.094;2023-07-02T16:18:14;11.85;;;8.77;;
22754;SDS011;11544;42.020;23.094;2023-07-02T16:20:42;12.10;;;9.05;;
22754;SDS011;11544;42.020;23.094;2023-07-02T16:23:21;13.02;;;9.52;;
22754;SDS011;11544;42.020;23.094;2023-07-02T16:26:42;12.43;;;9.35;;
22754;SDS011;11544;42.020;23.094;2023-07-02T16:29:44;13.32;;;10.02;;
22754;SDS011;11544;42.020;23.094;2023-07-02T16:32:21;14.88;;;9.15;;
22754;SDS011;11544;42.020;23.094;2023-07-02T16:35:13;10.88;;;8.10;;
22754;SDS011;11544;42.020;23.094;2023-07-02T16:38:01;11.10;;;9.15;;
22754;SDS011;11544;42.020;23.094;2023-07-02T16:41:02;11.27;;;8.55;;
22754;SDS011;11544;42.020;23.094;2023-07-02T16:51:48;13.35;;;9.20;;
22754;SDS011;11544;42.020;23.094;2023-07-02T16:54:38;12.30;;;8.85;;
22754;SDS011;11544;42.020;23.094;2023-07-02T16:57:09;17.13;;;9.68;;
22754;SDS011;11544;42.020;23.094;2023-07-02T16:59:36;11.05;;;9.07;;
22754;SDS011;11544;42.020;23.094;2023-07-02T17:02:07;11.38;;;9.02;;
22754;SDS011;11544;42.020;23.094;2023-07-02T17:04:34;11.90;;;8.52;;
22754;SDS011;11544;42.020;23.094;2023-07-02T17:07:02;9.77;;;8.57;;
22754;SDS011;11544;42.020;23.094;2023-07-02T17:09:36;10.77;;;8.57;;
22754;SDS011;11544;42.020;23.094;2023-07-02T17:12:07;12.75;;;8.52;;
22754;SDS011;11544;42.020;23.094;2023-07-02T17:14:38;14.77;;;9.13;;
22754;SDS011;11544;42.020;23.094;2023-07-02T17:17:10;12.70;;;9.10;;
22754;SDS011;11544;42.020;23.094;2023-07-02T17:19:41;10.73;;;8.48;;
22754;SDS011;11544;42.020;23.094;2023-07-02T17:22:13;12.73;;;8.80;;
22754;SDS011;11544;42.020;23.094;2023-07-02T17:24:43;12.98;;;9.15;;
22754;SDS011;11544;42.020;23.094;2023-07-02T17:27:12;13.00;;;10.18;;
22754;SDS011;11544;42.020;23.094;2023-07-02T17:29:47;13.73;;;10.27;;
22754;SDS011;11544;42.020;23.094;2023-07-02T17:32:16;11.63;;;9.45;;
22754;SDS011;11544;42.020;23.094;2023-07-02T17:34:43;10.80;;;9.20;;
22754;SDS011;11544;42.020;23.094;2023-07-02T17:37:11;10.57;;;8.70;;
22754;SDS011;11544;42.020;23.094;2023-07-02T17:39:44;14.02;;;9.38;;
22754;SDS011;11544;42.020;23.094;2023-07-02T17:42:20;9.32;;;8.32;;
22754;SDS011;11544;42.020;23.094;2023-07-02T17:44:48;11.05;;;8.20;;
22754;SDS011;11544;42.020;23.094;2023-07-02T17:47:16;9.50;;;8.20;;
22754;SDS011;11544;42.020;23.094;2023-07-02T17:49:46;10.38;;;8.00;;
22754;SDS011;11544;42.020;23.094;2023-07-02T17:52:15;10.73;;;8.80;;
22754;SDS011;11544;42.020;23.094;2023-07-02T17:54:44;10.70;;;8.38;;
22754;SDS011;11544;42.020;23.094;2023-07-02T17:57:14;11.13;;;7.40;;
22754;SDS011;11544;42.020;23.094;2023-07-02T17:59:42;11.60;;;8.55;;
22754;SDS011;11544;42.020;23.094;2023-07-02T18:02:13;12.50;;;9.25;;
22754;SDS011;11544;42.020;23.094;2023-07-02T18:04:41;11.20;;;9.50;;
22754;SDS011;11544;42.020;23.094;2023-07-02T18:07:16;12.52;;;9.40;;
22754;SDS011;11544;42.020;23.094;2023-07-02T18:09:49;10.18;;;8.57;;
22754;SDS011;11544;42.020;23.094;2023-07-02T18:12:18;9.75;;;8.00;;
22754;SDS011;11544;42.020;23.094;2023-07-02T18:14:47;14.40;;;10.45;;
22754;SDS011;11544;42.020;23.094;2023-07-02T18:17:14;11.90;;;9.80;;
22754;SDS011;11544;42.020;23.094;2023-07-02T18:19:42;12.63;;;10.38;;
22754;SDS011;11544;42.020;23.094;2023-07-02T18:22:09;17.67;;;10.32;;
22754;SDS011;11544;42.020;23.094;2023-07-02T18:24:37;13.32;;;10.38;;
22754;SDS011;11544;42.020;23.094;2023-07-02T18:27:07;12.20;;;9.88;;
22754;SDS011;11544;42.020;23.094;2023-07-02T18:29:35;14.68;;;10.45;;
22754;SDS011;11544;42.020;23.094;2023-07-02T18:32:04;12.65;;;9.73;;
22754;SDS011;11544;42.020;23.094;2023-07-02T18:34:33;14.80;;;10.40;;
22754;SDS011;11544;42.020;23.094;2023-07-02T18:37:03;12.90;;;10.05;;
22754;SDS011;11544;42.020;23.094;2023-07-02T18:39:33;13.60;;;10.55;;
22754;SDS011;11544;42.020;23.094;2023-07-02T18:42:01;12.73;;;10.82;;
22754;SDS011;11544;42.020;23.094;2023-07-02T18:44:30;18.20;;;11.00;;
22754;SDS011;11544;42.020;23.094;2023-07-02T18:47:01;15.48;;;11.68;;
22754;SDS011;11544;42.020;23.094;2023-07-02T18:49:29;12.70;;;10.35;;
22754;SDS011;11544;42.020;23.094;2023-07-02T18:52:08;12.18;;;8.20;;
22754;SDS011;11544;42.020;23.094;2023-07-02T18:54:37;11.75;;;8.88;;
22754;SDS011;11544;42.020;23.094;2023-07-02T18:57:07;14.35;;;10.82;;
22754;SDS011;11544;42.020;23.094;2023-07-02T18:59:36;15.07;;;11.90;;
22754;SDS011;11544;42.020;23.094;2023-07-02T19:02:04;16.35;;;11.20;;
22754;SDS011;11544;42.020;23.094;2023-07-02T19:04:32;14.65;;;11.30;;
22754;SDS011;11544;42.020;23.094;2023-07-02T19:07:00;15.07;;;10.70;;
22754;SDS011;11544;42.020;23.094;2023-07-02T19:09:29;14.00;;;10.63;;
22754;SDS011;11544;42.020;23.094;2023-07-02T19:11:56;13.35;;;10.65;;
22754;SDS011;11544;42.020;23.094;2023-07-02T19:14:24;13.57;;;9.90;;
22754;SDS011;11544;42.020;23.094;2023-07-02T19:16:56;14.05;;;10.25;;
22754;SDS011;11544;42.020;23.094;2023-07-02T19:19:33;15.18;;;10.27;;
22754;SDS011;11544;42.020;23.094;2023-07-02T19:22:00;14.77;;;10.43;;
22754;SDS011;11544;42.020;23.094;2023-07-02T19:24:27;17.23;;;10.43;;
22754;SDS011;11544;42.020;23.094;2023-07-02T19:26:54;14.98;;;10.32;;
22754;SDS011;11544;42.020;23.094;2023-07-02T19:29:24;15.85;;;10.18;;
22754;SDS011;11544;42.020;23.094;2023-07-02T19:31:52;11.95;;;9.45;;
